Time;durP1;ratioP1;P1;durP2;ratioP2;P2;SDS_P1;SDS_P2;PMS_P1;PMS_P2;Temp;Humidity;BMP_temperature;BMP_pressure;BME280_temperature;BME280_humidity;BME280_pressure;Samples;Min_cycle;Max_cycle;Signal;HPM_P1;HPM_P2
2023/12/24 00:00:13;;;;;;;50.90;7.23;;;3.30;99.90;;;;;;4965584;28;20235;-84
2023/12/24 00:02:41;;;;;;;41.03;6.03;;;3.30;99.90;;;;;;4966463;28;20268;-85
2023/12/24 00:05:08;;;;;;;22.93;4.13;;;3.30;99.90;;;;;;4984585;28;20283;-85
2023/12/24 00:07:35;;;;;;;10.43;3.37;;;3.30;99.90;;;;;;4971812;28;20323;-85
2023/12/24 00:10:02;;;;;;;17.27;3.90;;;3.30;99.90;;;;;;4975669;28;20219;-85
2023/12/24 00:12:29;;;;;;;42.83;5.77;;;3.30;99.90;;;;;;4962058;28;20319;-85
2023/12/24 00:14:56;;;;;;;5.63;3.17;;;3.30;99.90;;;;;;4968818;28;20276;-86
2023/12/24 00:17:23;;;;;;;35.67;5.30;;;3.30;99.90;;;;;;4965843;28;20372;-85
2023/12/24 00:19:51;;;;;;;5.80;2.77;;;3.30;99.90;;;;;;4969134;28;20226;-86
2023/12/24 00:22:18;;;;;;;15.77;3.30;;;3.30;99.90;;;;;;4985304;28;20230;-86
2023/12/24 00:24:45;;;;;;;112.20;8.87;;;3.30;99.90;;;;;;4992510;28;20228;-86
2023/12/24 00:27:12;;;;;;;14.87;3.43;;;3.30;99.90;;;;;;4961319;28;20229;-85
2023/12/24 00:29:39;;;;;;;4.57;2.40;;;3.30;99.90;;;;;;4970246;28;20228;-85
2023/12/24 00:32:06;;;;;;;33.43;4.47;;;3.30;99.90;;;;;;4972712;28;20230;-85
2023/12/24 00:34:33;;;;;;;4.53;2.33;;;3.30;99.90;;;;;;4966403;28;20734;-85
2023/12/24 00:37:01;;;;;;;1.97;1.77;;;3.30;99.90;;;;;;4970586;28;20216;-86
2023/12/24 00:39:28;;;;;;;5.80;2.20;;;3.30;99.90;;;;;;4980875;28;20224;-86
2023/12/24 00:41:55;;;;;;;152.87;12.10;;;3.20;99.90;;;;;;4968077;28;20235;-86
2023/12/24 00:44:22;;;;;;;2.80;2.03;;;3.20;99.90;;;;;;4969783;28;20231;-86
2023/12/24 00:46:48;;;;;;;55.50;5.47;;;3.20;99.90;;;;;;4975398;28;20593;-85
2023/12/24 00:49:15;;;;;;;4.60;1.80;;;3.20;99.90;;;;;;4972336;28;20758;-85
2023/12/24 00:51:43;;;;;;;7.20;1.97;;;3.20;99.90;;;;;;4968645;28;20229;-85
2023/12/24 00:54:11;;;;;;;51.23;4.90;;;3.20;99.90;;;;;;4970096;28;20252;-85
2023/12/24 00:56:38;;;;;;;5.27;1.77;;;3.30;99.90;;;;;;4965948;28;20302;-85
2023/12/24 00:59:05;;;;;;;4.87;1.97;;;3.30;99.90;;;;;;4968062;28;20592;-86
2023/12/24 01:01:32;;;;;;;1.50;1.30;;;3.30;99.90;;;;;;4976567;28;20228;-85
2023/12/24 01:03:59;;;;;;;30.90;3.23;;;3.30;99.90;;;;;;4969950;28;20240;-86
2023/12/24 01:06:26;;;;;;;101.13;7.67;;;3.30;99.90;;;;;;4967237;28;20642;-85
2023/12/24 01:08:53;;;;;;;40.37;3.80;;;3.30;99.90;;;;;;4970472;28;21703;-86
2023/12/24 01:11:22;;;;;;;84.63;6.17;;;3.30;99.90;;;;;;4964735;28;20248;-86
2023/12/24 01:13:49;;;;;;;77.67;6.07;;;3.30;99.90;;;;;;4967954;28;20239;-87
2023/12/24 01:16:16;;;;;;;33.27;3.50;;;3.30;99.90;;;;;;4986753;28;20243;-85
2023/12/24 01:18:43;;;;;;;20.77;2.23;;;3.30;99.90;;;;;;4964282;28;20227;-86
2023/12/24 01:21:10;;;;;;;6.40;1.57;;;3.40;99.90;;;;;;4994213;28;20646;-87
2023/12/24 01:23:38;;;;;;;46.90;3.90;;;3.30;99.90;;;;;;4964991;28;20247;-86
2023/12/24 01:26:05;;;;;;;117.87;8.73;;;3.40;99.90;;;;;;4966949;28;20626;-86
2023/12/24 01:28:34;;;;;;;26.40;3.17;;;3.30;99.90;;;;;;4963877;28;20832;-86
2023/12/24 01:31:01;;;;;;;27.40;3.10;;;3.30;99.90;;;;;;4960522;28;20224;-86
2023/12/24 01:33:29;;;;;;;73.67;5.97;;;3.30;99.90;;;;;;4965184;28;20561;-86
2023/12/24 01:35:56;;;;;;;9.87;2.20;;;3.30;99.90;;;;;;4965745;28;20256;-85
2023/12/24 01:38:23;;;;;;;90.37;7.63;;;3.40;99.90;;;;;;4981137;28;20731;-86
2023/12/24 01:40:50;;;;;;;46.73;4.43;;;3.40;99.90;;;;;;4969220;28;20226;-85
2023/12/24 01:43:18;;;;;;;18.90;2.93;;;3.40;99.90;;;;;;4968049;28;20230;-85
2023/12/24 01:45:47;;;;;;;57.67;5.63;;;3.40;99.90;;;;;;4963919;28;20241;-85
2023/12/24 01:48:15;;;;;;;70.53;5.93;;;3.40;99.90;;;;;;4964178;28;20229;-85
2023/12/24 01:50:45;;;;;;;57.60;5.20;;;3.40;99.90;;;;;;4989611;28;20880;-85
2023/12/24 01:53:12;;;;;;;34.53;4.00;;;3.50;99.90;;;;;;4970828;28;20659;-85
2023/12/24 01:55:40;;;;;;;168.73;12.03;;;3.50;99.90;;;;;;4975025;28;20233;-85
2023/12/24 01:58:07;;;;;;;168.43;12.27;;;3.50;99.90;;;;;;4979297;28;20243;-84
2023/12/24 02:00:34;;;;;;;74.70;7.20;;;3.60;99.90;;;;;;4989731;28;20228;-86
2023/12/24 02:03:05;;;;;;;16.03;2.83;;;3.60;99.90;;;;;;4961542;28;20228;-84
2023/12/24 02:05:32;;;;;;;85.73;6.40;;;3.60;99.90;;;;;;4967121;28;20232;-85
2023/12/24 02:08:01;;;;;;;98.80;8.50;;;3.70;99.90;;;;;;4966129;28;20577;-86
2023/12/24 02:10:30;;;;;;;55.37;5.87;;;3.60;99.90;;;;;;4965456;28;20231;-85
2023/12/24 02:12:56;;;;;;;63.40;6.60;;;3.70;99.90;;;;;;4966532;28;20224;-85
2023/12/24 02:15:23;;;;;;;106.10;9.13;;;3.70;99.90;;;;;;4965665;28;20239;-85
2023/12/24 02:17:52;;;;;;;163.90;10.57;;;3.70;99.90;;;;;;4966252;28;20232;-85
2023/12/24 02:20:25;;;;;;;30.77;4.90;;;3.80;99.90;;;;;;4965758;28;20251;-84
2023/12/24 02:22:53;;;;;;;28.50;4.53;;;3.80;99.90;;;;;;4966211;28;20233;-84
2023/12/24 02:25:21;;;;;;;82.80;7.57;;;3.80;99.90;;;;;;4964727;28;20231;-84
2023/12/24 02:27:52;;;;;;;100.40;8.60;;;3.90;99.90;;;;;;4982152;28;20235;-85
2023/12/24 02:30:25;;;;;;;31.53;5.10;;;3.90;99.90;;;;;;4964853;28;20236;-85
2023/12/24 02:32:55;;;;;;;154.93;13.10;;;4.00;99.90;;;;;;4982282;28;20236;-85
2023/12/24 02:35:24;;;;;;;6.03;3.67;;;4.00;99.90;;;;;;4964932;28;20296;-84
2023/12/24 02:37:53;;;;;;;22.63;5.00;;;4.10;99.90;;;;;;4957357;28;20766;-85
2023/12/24 02:40:20;;;;;;;90.23;9.87;;;4.10;99.90;;;;;;4964275;28;20630;-84
2023/12/24 02:42:47;;;;;;;11.03;5.20;;;4.20;99.90;;;;;;4965541;28;20229;-84
2023/12/24 02:45:14;;;;;;;84.67;10.00;;;4.20;99.90;;;;;;4966628;28;20238;-84
2023/12/24 02:47:42;;;;;;;307.30;26.03;;;4.20;99.90;;;;;;4965874;28;20230;-84
2023/12/24 02:50:11;;;;;;;39.77;6.97;;;4.30;99.90;;;;;;4974328;28;20235;-85
2023/12/24 02:52:38;;;;;;;25.97;5.70;;;4.40;99.90;;;;;;4965735;28;20649;-85
2023/12/24 02:55:07;;;;;;;11.73;3.73;;;4.50;99.90;;;;;;4963819;28;20233;-85
2023/12/24 02:57:34;;;;;;;21.07;4.23;;;4.50;99.90;;;;;;4969962;28;20237;-85
2023/12/24 03:00:04;;;;;;;2.47;1.93;;;4.70;99.90;;;;;;4963610;28;20799;-86
2023/12/24 03:02:31;;;;;;;3.13;1.43;;;4.80;99.90;;;;;;4966836;28;20233;-86
2023/12/24 03:04:58;;;;;;;0.87;0.70;;;4.90;99.90;;;;;;4959044;28;20231;-85
2023/12/24 03:07:25;;;;;;;0.50;0.50;;;5.00;99.90;;;;;;4987515;28;20291;-85
2023/12/24 03:09:52;;;;;;;0.47;0.47;;;5.20;99.90;;;;;;4967350;28;20246;-85
2023/12/24 03:12:20;;;;;;;0.30;0.30;;;5.40;99.90;;;;;;4968701;28;20269;-85
2023/12/24 03:14:47;;;;;;;1.23;0.40;;;5.50;99.90;;;;;;4963217;28;20854;-85
2023/12/24 03:17:14;;;;;;;0.67;0.30;;;5.70;99.90;;;;;;4963718;28;20319;-86
2023/12/24 03:19:41;;;;;;;0.30;0.30;;;5.90;99.90;;;;;;4967427;28;20232;-85
2023/12/24 03:22:08;;;;;;;0.40;0.30;;;6.00;99.90;;;;;;4969546;28;20232;-84
2023/12/24 03:24:35;;;;;;;0.60;0.30;;;6.10;99.90;;;;;;4963553;28;20660;-85
2023/12/24 03:27:02;;;;;;;0.67;0.40;;;6.30;99.90;;;;;;4958645;28;20256;-85
2023/12/24 03:29:32;;;;;;;1.17;0.40;;;6.40;99.90;;;;;;4965255;28;20238;-85
2023/12/24 03:31:58;;;;;;;0.50;0.30;;;6.50;99.90;;;;;;4966093;28;20232;-85
2023/12/24 03:34:25;;;;;;;0.30;0.30;;;6.60;99.90;;;;;;4979587;28;20610;-85
2023/12/24 03:36:52;;;;;;;0.40;0.40;;;6.70;99.90;;;;;;4969290;28;20919;-85
2023/12/24 03:39:19;;;;;;;1.27;0.43;;;6.80;99.90;;;;;;4948997;28;20237;-85
2023/12/24 03:41:46;;;;;;;0.50;0.40;;;6.80;99.90;;;;;;4961130;28;20282;-84
2023/12/24 03:44:13;;;;;;;2.10;0.33;;;6.90;99.90;;;;;;4960246;28;20234;-84
2023/12/24 03:46:42;;;;;;;0.43;0.30;;;7.00;99.90;;;;;;4934901;28;20228;-85
2023/12/24 03:49:10;;;;;;;0.73;0.40;;;7.00;99.90;;;;;;4945142;28;20234;-84
2023/12/24 03:51:37;;;;;;;0.40;0.40;;;7.00;99.90;;;;;;4950195;28;20233;-85
2023/12/24 03:54:04;;;;;;;0.97;0.40;;;7.10;99.90;;;;;;4960873;28;20221;-84
2023/12/24 03:56:32;;;;;;;0.33;0.33;;;7.10;99.90;;;;;;4956662;28;20237;-84
2023/12/24 03:58:59;;;;;;;0.40;0.40;;;7.20;99.90;;;;;;4996343;28;20233;-84
2023/12/24 04:01:27;;;;;;;0.67;0.50;;;7.20;99.90;;;;;;4965385;28;20224;-84
2023/12/24 04:03:54;;;;;;;0.63;0.50;;;7.20;99.90;;;;;;4973922;28;20727;-84
2023/12/24 04:06:22;;;;;;;0.50;0.40;;;7.30;99.90;;;;;;4967977;28;20226;-84
2023/12/24 04:08:49;;;;;;;0.87;0.50;;;7.30;99.90;;;;;;4967947;28;20321;-84
2023/12/24 04:11:17;;;;;;;0.87;0.40;;;7.30;99.90;;;;;;4969194;28;20227;-84
2023/12/24 04:13:45;;;;;;;0.40;0.40;;;7.30;99.90;;;;;;4965819;28;20227;-84
2023/12/24 04:16:12;;;;;;;0.90;0.40;;;7.40;99.90;;;;;;4968378;28;20699;-84
2023/12/24 04:18:40;;;;;;;0.60;0.50;;;7.40;99.90;;;;;;4972519;28;20227;-84
2023/12/24 04:21:09;;;;;;;0.73;0.53;;;7.40;99.90;;;;;;4968003;28;20350;-86
2023/12/24 04:23:36;;;;;;;1.27;0.50;;;7.40;99.90;;;;;;4966436;28;20437;-85
2023/12/24 04:26:03;;;;;;;0.40;0.40;;;7.40;99.90;;;;;;4968740;28;20369;-85
2023/12/24 04:28:32;;;;;;;0.53;0.50;;;7.40;99.90;;;;;;4967874;28;20359;-84
2023/12/24 04:30:59;;;;;;;0.60;0.40;;;7.50;99.90;;;;;;4973369;28;20296;-85
2023/12/24 04:33:26;;;;;;;0.40;0.40;;;7.50;99.90;;;;;;4975152;28;20914;-85
2023/12/24 04:35:53;;;;;;;0.90;0.60;;;7.50;99.90;;;;;;4968949;28;20678;-84
2023/12/24 04:38:22;;;;;;;0.60;0.57;;;7.50;99.90;;;;;;4967416;28;20248;-85
2023/12/24 04:40:49;;;;;;;1.23;0.50;;;7.50;99.90;;;;;;4967574;28;20235;-83
2023/12/24 04:43:16;;;;;;;0.70;0.43;;;7.50;99.90;;;;;;4983955;28;20226;-85
2023/12/24 04:45:43;;;;;;;0.87;0.77;;;7.50;99.90;;;;;;4965159;28;20244;-84
2023/12/24 04:48:10;;;;;;;0.80;0.50;;;7.60;99.90;;;;;;4994384;28;20520;-84
2023/12/24 04:50:37;;;;;;;0.93;0.50;;;7.60;99.90;;;;;;4964469;28;20934;-85
2023/12/24 04:53:04;;;;;;;0.77;0.50;;;7.60;99.90;;;;;;4967646;28;20264;-85
2023/12/24 04:55:33;;;;;;;0.60;0.50;;;7.60;99.90;;;;;;4977742;28;20356;-86
2023/12/24 04:57:59;;;;;;;0.50;0.40;;;7.60;99.90;;;;;;4974293;28;20269;-87
2023/12/24 05:00:26;;;;;;;0.50;0.50;;;7.60;99.90;;;;;;4971054;28;20232;-86
2023/12/24 05:02:53;;;;;;;0.43;0.40;;;7.60;99.90;;;;;;4969996;28;20448;-85
2023/12/24 05:05:21;;;;;;;0.40;0.40;;;7.60;99.90;;;;;;4972005;28;20226;-86
2023/12/24 05:07:48;;;;;;;1.20;0.47;;;7.60;99.90;;;;;;4967589;28;20228;-85
2023/12/24 05:10:15;;;;;;;0.40;0.40;;;7.60;99.90;;;;;;4973295;28;20331;-85
2023/12/24 05:12:43;;;;;;;0.93;0.60;;;7.60;99.90;;;;;;4992853;28;20230;-85
2023/12/24 05:15:11;;;;;;;0.50;0.50;;;7.60;99.90;;;;;;4969206;28;20354;-85
2023/12/24 05:17:38;;;;;;;0.50;0.50;;;7.60;99.90;;;;;;4965862;28;20227;-84
2023/12/24 05:20:06;;;;;;;0.67;0.40;;;7.60;99.90;;;;;;4970819;28;20320;-84
2023/12/24 05:22:33;;;;;;;0.93;0.40;;;7.70;99.90;;;;;;4966466;28;20243;-85
2023/12/24 05:25:00;;;;;;;0.70;0.40;;;7.70;99.90;;;;;;4969158;28;20232;-84
2023/12/24 05:27:28;;;;;;;0.93;0.60;;;7.70;99.90;;;;;;4964482;28;20242;-86
2023/12/24 05:29:56;;;;;;;0.50;0.47;;;7.70;99.90;;;;;;4967656;28;20233;-86
2023/12/24 05:32:23;;;;;;;0.60;0.57;;;7.70;99.90;;;;;;4970213;28;20221;-86
2023/12/24 05:34:50;;;;;;;0.73;0.53;;;7.70;99.90;;;;;;4971403;28;20252;-85
2023/12/24 05:37:16;;;;;;;0.40;0.40;;;7.70;99.90;;;;;;4973865;28;20948;-85
2023/12/24 05:39:43;;;;;;;0.50;0.50;;;7.70;99.90;;;;;;4975522;28;20244;-86
2023/12/24 05:42:10;;;;;;;0.97;0.67;;;7.70;99.90;;;;;;4973475;28;20229;-85
2023/12/24 05:44:37;;;;;;;0.70;0.60;;;7.70;99.90;;;;;;4969087;28;20601;-85
2023/12/24 05:47:06;;;;;;;0.70;0.70;;;7.70;99.90;;;;;;4976846;28;20268;-86
2023/12/24 05:49:33;;;;;;;0.97;0.80;;;7.70;99.90;;;;;;4965657;28;20227;-86
2023/12/24 05:52:00;;;;;;;1.13;0.90;;;7.70;99.90;;;;;;4974056;28;20258;-86
2023/12/24 05:54:27;;;;;;;0.80;0.80;;;7.80;99.90;;;;;;4961340;28;20550;-87
2023/12/24 05:56:54;;;;;;;1.00;1.00;;;7.80;99.90;;;;;;4963623;28;20552;-86
2023/12/24 05:59:22;;;;;;;1.40;1.23;;;7.80;99.90;;;;;;4968361;28;20226;-86
2023/12/24 06:01:49;;;;;;;1.63;1.53;;;7.80;99.90;;;;;;4973775;28;20223;-85
2023/12/24 06:04:17;;;;;;;2.67;1.43;;;7.80;99.90;;;;;;4969688;28;20420;-84
2023/12/24 06:06:44;;;;;;;1.20;1.20;;;7.80;99.90;;;;;;4971971;28;20575;-85
2023/12/24 06:09:12;;;;;;;1.20;1.20;;;7.80;99.90;;;;;;4960838;28;20250;-87
2023/12/24 06:11:39;;;;;;;1.27;1.17;;;7.80;99.90;;;;;;5003923;28;20233;-86
2023/12/24 06:14:06;;;;;;;1.33;0.87;;;7.80;99.90;;;;;;4973955;28;20291;-86
2023/12/24 06:16:34;;;;;;;0.93;0.93;;;7.90;99.90;;;;;;4966033;28;20364;-90
2023/12/24 06:19:01;;;;;;;0.90;0.90;;;7.90;99.90;;;;;;4966197;28;20238;-86
2023/12/24 06:21:30;;;;;;;1.03;1.00;;;7.80;99.90;;;;;;4964565;28;20233;-87
2023/12/24 06:23:57;;;;;;;1.33;1.10;;;7.90;99.90;;;;;;4962738;28;20420;-84
2023/12/24 06:26:24;;;;;;;1.20;1.10;;;7.90;99.90;;;;;;4968948;28;20233;-84
2023/12/24 06:28:51;;;;;;;1.10;1.00;;;7.90;99.90;;;;;;4975305;28;20748;-85
2023/12/24 06:31:22;;;;;;;0.93;0.90;;;7.90;99.90;;;;;;4963798;28;20237;-84
2023/12/24 06:33:49;;;;;;;1.00;0.90;;;7.90;99.90;;;;;;4965884;28;20239;-86
2023/12/24 06:36:17;;;;;;;0.80;0.80;;;7.90;99.90;;;;;;4980122;28;20317;-86
2023/12/24 06:38:45;;;;;;;1.07;0.97;;;7.90;99.90;;;;;;4960652;28;20227;-87
2023/12/24 06:41:12;;;;;;;0.90;0.90;;;7.90;99.90;;;;;;4965678;28;20230;-86
2023/12/24 06:43:39;;;;;;;0.90;0.90;;;7.90;99.90;;;;;;4967159;28;20229;-86
2023/12/24 06:46:11;;;;;;;1.00;1.00;;;7.90;99.90;;;;;;4951022;28;20230;-86
2023/12/24 06:48:38;;;;;;;1.00;1.00;;;7.90;99.90;;;;;;4985682;28;20257;-85
2023/12/24 06:51:06;;;;;;;0.80;0.80;;;7.90;99.90;;;;;;4966645;28;20261;-85
2023/12/24 06:53:33;;;;;;;1.30;1.00;;;7.90;99.90;;;;;;4962615;28;20653;-86
2023/12/24 06:56:01;;;;;;;0.93;0.93;;;7.90;99.90;;;;;;4961399;28;20337;-86
2023/12/24 06:58:28;;;;;;;1.00;1.00;;;8.00;99.90;;;;;;4965651;28;20242;-85
2023/12/24 07:00:57;;;;;;;0.90;0.90;;;8.00;99.90;;;;;;4984433;28;20229;-86
2023/12/24 07:03:27;;;;;;;0.77;0.77;;;8.00;99.90;;;;;;4971636;28;20282;-85
2023/12/24 07:05:54;;;;;;;1.30;1.20;;;8.00;99.90;;;;;;4963602;28;20288;-86
2023/12/24 07:08:22;;;;;;;1.23;0.90;;;8.00;99.90;;;;;;4965397;28;20248;-86
2023/12/24 07:10:49;;;;;;;1.47;0.90;;;8.00;99.90;;;;;;4963142;28;20265;-85
2023/12/24 07:13:17;;;;;;;1.30;0.97;;;8.00;99.90;;;;;;4977678;28;20704;-85
2023/12/24 07:15:44;;;;;;;1.30;1.20;;;8.00;99.90;;;;;;4996423;28;20249;-86
2023/12/24 07:18:11;;;;;;;2.00;0.80;;;8.00;99.90;;;;;;4992841;28;20325;-85
2023/12/24 07:20:38;;;;;;;1.00;0.90;;;8.00;99.90;;;;;;4991881;28;20374;-85
2023/12/24 07:23:04;;;;;;;0.90;0.80;;;8.00;99.90;;;;;;4967450;28;20236;-84
2023/12/24 07:25:31;;;;;;;1.00;1.00;;;8.10;99.90;;;;;;4967350;28;20234;-84
2023/12/24 07:27:58;;;;;;;1.03;0.93;;;8.10;99.90;;;;;;4963634;28;20230;-84
2023/12/24 07:30:27;;;;;;;1.50;0.83;;;8.10;99.90;;;;;;4962658;28;20246;-84
2023/12/24 07:32:53;;;;;;;1.10;1.00;;;8.00;99.90;;;;;;4966013;28;20225;-85
2023/12/24 07:35:20;;;;;;;0.83;0.83;;;8.10;99.90;;;;;;4963286;28;20309;-85
2023/12/24 07:37:48;;;;;;;0.90;0.90;;;8.10;99.90;;;;;;4963537;28;20232;-85
2023/12/24 07:40:14;;;;;;;0.90;0.90;;;8.10;99.90;;;;;;4969982;28;20232;-85
2023/12/24 07:42:41;;;;;;;0.87;0.87;;;8.10;99.90;;;;;;4970545;28;20296;-84
2023/12/24 07:45:09;;;;;;;1.27;1.07;;;8.10;99.90;;;;;;4969114;28;20234;-84
2023/12/24 07:47:37;;;;;;;1.07;0.90;;;8.10;99.90;;;;;;4987511;28;20241;-85
2023/12/24 07:50:04;;;;;;;0.60;0.60;;;8.10;99.90;;;;;;4971766;28;20333;-85
2023/12/24 07:52:31;;;;;;;0.80;0.80;;;8.10;99.90;;;;;;4966932;28;20242;-85
2023/12/24 07:54:58;;;;;;;0.60;0.60;;;8.20;99.90;;;;;;4964192;28;20857;-85
2023/12/24 07:57:24;;;;;;;1.07;0.77;;;8.20;99.90;;;;;;4964424;28;20262;-85
2023/12/24 07:59:51;;;;;;;1.00;0.90;;;8.10;99.90;;;;;;4964855;28;20239;-87
2023/12/24 08:02:18;;;;;;;0.70;0.70;;;8.20;99.90;;;;;;4975895;28;20333;-86
2023/12/24 08:04:46;;;;;;;1.20;0.80;;;8.20;99.90;;;;;;4975354;28;20225;-85
2023/12/24 08:07:13;;;;;;;0.60;0.60;;;8.20;99.90;;;;;;4996658;28;20535;-85
2023/12/24 08:09:40;;;;;;;0.50;0.50;;;8.20;99.90;;;;;;4995675;28;20733;-85
2023/12/24 08:12:07;;;;;;;0.73;0.50;;;8.20;99.90;;;;;;4970391;28;20323;-85
2023/12/24 08:14:34;;;;;;;0.70;0.70;;;8.20;99.90;;;;;;4971073;28;20261;-85
2023/12/24 08:17:00;;;;;;;0.70;0.70;;;8.20;99.90;;;;;;4961384;28;20254;-85
2023/12/24 08:19:27;;;;;;;0.80;0.60;;;8.30;99.90;;;;;;4964480;28;20238;-85
2023/12/24 08:21:55;;;;;;;0.83;0.63;;;8.30;99.90;;;;;;4967580;28;20809;-84
2023/12/24 08:24:22;;;;;;;0.63;0.63;;;8.30;99.90;;;;;;4962006;28;20229;-85
2023/12/24 08:26:49;;;;;;;0.60;0.60;;;8.30;99.90;;;;;;4962723;28;20248;-85
2023/12/24 08:29:18;;;;;;;0.60;0.60;;;8.30;99.90;;;;;;4959029;28;20630;-85
2023/12/24 08:31:45;;;;;;;10.60;1.37;;;8.30;99.90;;;;;;4966461;28;20222;-84
2023/12/24 08:34:12;;;;;;;0.90;0.60;;;8.30;99.90;;;;;;4963886;28;20308;-85
2023/12/24 08:36:39;;;;;;;1.63;0.60;;;8.30;99.90;;;;;;4968027;28;20338;-85
2023/12/24 08:39:09;;;;;;;1.03;0.70;;;8.30;99.90;;;;;;4966371;28;20226;-86
2023/12/24 08:41:35;;;;;;;12.33;1.27;;;8.40;99.90;;;;;;4965548;28;20245;-84
2023/12/24 08:44:02;;;;;;;7.53;1.07;;;8.40;99.90;;;;;;4963637;28;20241;-84
2023/12/24 08:46:29;;;;;;;6.97;1.00;;;8.40;99.90;;;;;;5001099;28;20313;-83
2023/12/24 08:48:55;;;;;;;12.80;1.40;;;8.40;99.90;;;;;;4961505;28;20305;-85
2023/12/24 08:51:22;;;;;;;3.57;0.70;;;8.40;99.90;;;;;;4967362;28;20296;-86
2023/12/24 08:53:49;;;;;;;3.00;0.80;;;8.40;99.90;;;;;;4969961;28;20269;-84
2023/12/24 08:56:17;;;;;;;0.90;0.60;;;8.40;99.90;;;;;;4961961;28;20353;-84
2023/12/24 08:58:44;;;;;;;2.37;0.60;;;8.50;99.90;;;;;;4967702;28;20245;-84
2023/12/24 09:01:10;;;;;;;1.90;0.80;;;8.50;99.90;;;;;;4970956;28;20283;-86
2023/12/24 09:03:37;;;;;;;4.10;0.90;;;8.50;99.90;;;;;;4965885;28;20232;-85
2023/12/24 09:06:04;;;;;;;10.00;1.20;;;8.50;99.90;;;;;;4968796;28;20226;-86
2023/12/24 09:08:31;;;;;;;3.90;0.90;;;8.50;99.90;;;;;;4967305;28;20302;-88
2023/12/24 09:10:58;;;;;;;1.30;0.63;;;8.60;99.90;;;;;;4966601;28;20306;-86
2023/12/24 09:13:26;;;;;;;2.17;0.77;;;8.60;99.90;;;;;;4970655;28;20303;-86
2023/12/24 09:15:53;;;;;;;0.90;0.63;;;8.60;99.90;;;;;;4966487;28;20344;-86
2023/12/24 09:18:19;;;;;;;2.40;0.70;;;8.60;99.90;;;;;;4963310;28;20233;-86
2023/12/24 09:20:46;;;;;;;10.30;1.00;;;8.60;99.90;;;;;;4967825;28;20258;-84
2023/12/24 09:23:13;;;;;;;2.43;0.70;;;8.60;99.90;;;;;;4997363;28;20242;-83
2023/12/24 09:25:40;;;;;;;2.30;0.70;;;8.70;99.90;;;;;;4974376;28;20237;-84
2023/12/24 09:28:07;;;;;;;1.63;0.67;;;8.60;99.90;;;;;;4963358;28;20942;-84
2023/12/24 09:30:35;;;;;;;2.63;0.80;;;8.70;99.90;;;;;;4962888;28;20234;-83
2023/12/24 09:33:02;;;;;;;0.60;0.60;;;8.70;99.90;;;;;;4996531;28;20226;-83
2023/12/24 09:35:30;;;;;;;0.73;0.60;;;8.70;99.90;;;;;;4963083;28;20635;-83
2023/12/24 09:37:56;;;;;;;1.30;0.60;;;8.70;99.90;;;;;;4967666;28;20324;-84
2023/12/24 09:40:23;;;;;;;0.90;0.63;;;8.70;99.90;;;;;;4962325;28;20784;-85
2023/12/24 09:42:50;;;;;;;0.50;0.50;;;8.80;99.90;;;;;;4963762;28;20406;-84
2023/12/24 09:45:17;;;;;;;0.70;0.60;;;8.80;99.90;;;;;;4967862;28;20521;-85
2023/12/24 09:47:45;;;;;;;0.50;0.50;;;8.80;99.90;;;;;;4960631;28;20269;-85
2023/12/24 09:50:12;;;;;;;0.83;0.70;;;8.80;99.90;;;;;;4983631;28;20555;-85
2023/12/24 09:52:39;;;;;;;1.90;0.90;;;8.80;99.90;;;;;;4966926;28;20222;-84
2023/12/24 09:55:07;;;;;;;0.57;0.50;;;8.80;99.90;;;;;;4962916;28;20276;-86
2023/12/24 09:57:34;;;;;;;0.70;0.60;;;8.90;99.90;;;;;;4958174;28;20317;-84
2023/12/24 10:00:01;;;;;;;0.70;0.70;;;8.90;99.90;;;;;;4962746;28;20714;-84
2023/12/24 10:02:28;;;;;;;0.70;0.60;;;8.90;99.90;;;;;;4963503;28;20232;-84
2023/12/24 10:04:56;;;;;;;0.80;0.70;;;8.90;99.90;;;;;;4970103;28;20587;-85
2023/12/24 10:07:22;;;;;;;0.80;0.70;;;8.90;99.90;;;;;;4967270;28;20781;-85
2023/12/24 10:09:50;;;;;;;0.60;0.60;;;9.00;99.90;;;;;;4962792;28;20590;-84
2023/12/24 10:12:17;;;;;;;0.60;0.60;;;9.00;99.90;;;;;;4965844;28;20225;-83
2023/12/24 10:14:58;;;;;;;0.67;0.67;;;9.00;99.90;;;;;;4954098;28;20237;-83
2023/12/24 10:17:28;;;;;;;1.30;1.17;;;9.00;99.90;;;;;;4982028;28;20308;-81
2023/12/24 10:19:57;;;;;;;1.00;0.90;;;9.10;99.90;;;;;;4993325;28;20249;-84
2023/12/24 10:22:24;;;;;;;1.00;0.90;;;9.00;99.90;;;;;;4965325;28;20314;-83
2023/12/24 10:25:00;;;;;;;0.60;0.60;;;9.10;99.90;;;;;;4968543;28;20312;-83
2023/12/24 10:27:26;;;;;;;1.67;0.77;;;9.10;99.90;;;;;;4964127;28;20677;-82
2023/12/24 10:29:55;;;;;;;0.70;0.60;;;9.10;99.90;;;;;;4962744;28;20891;-82
2023/12/24 10:32:24;;;;;;;0.50;0.50;;;9.20;99.90;;;;;;4963209;28;20230;-83
2023/12/24 10:34:58;;;;;;;0.73;0.60;;;9.20;99.90;;;;;;4963073;28;20223;-83
2023/12/24 10:37:26;;;;;;;1.20;0.70;;;9.20;99.90;;;;;;4964346;28;20266;-82
2023/12/24 10:39:53;;;;;;;0.70;0.50;;;9.20;99.90;;;;;;4963598;28;20316;-83
2023/12/24 10:42:20;;;;;;;0.97;0.60;;;9.30;99.90;;;;;;4965812;28;20269;-83
2023/12/24 10:44:47;;;;;;;0.70;0.70;;;9.30;99.90;;;;;;4958189;28;20235;-83
2023/12/24 10:47:14;;;;;;;0.67;0.67;;;9.30;99.90;;;;;;4963115;28;20242;-84
2023/12/24 10:49:41;;;;;;;0.70;0.70;;;9.30;99.90;;;;;;4961132;28;20238;-84
2023/12/24 10:52:09;;;;;;;1.00;0.90;;;9.30;99.90;;;;;;4994304;28;20314;-83
2023/12/24 10:54:36;;;;;;;2.00;1.00;;;9.40;99.90;;;;;;4960469;28;20238;-82
2023/12/24 10:57:16;;;;;;;0.80;0.80;;;9.30;99.90;;;;;;4961307;28;20226;-82
2023/12/24 11:00:04;;;;;;;1.23;0.80;;;9.30;99.90;;;;;;4961826;28;20631;-82
2023/12/24 11:02:32;;;;;;;0.90;0.70;;;9.40;99.90;;;;;;4991259;28;20230;-82
2023/12/24 11:04:59;;;;;;;0.60;0.60;;;9.40;99.90;;;;;;4963332;28;20254;-83
2023/12/24 11:08:00;;;;;;;0.80;0.70;;;9.40;99.90;;;;;;4963695;28;20238;-83
2023/12/24 11:10:40;;;;;;;0.90;0.70;;;9.40;99.90;;;;;;4954434;28;20341;-82
2023/12/24 11:13:12;;;;;;;1.50;0.80;;;9.50;99.90;;;;;;4958420;28;20225;-82
2023/12/24 11:15:44;;;;;;;1.00;0.70;;;9.50;99.90;;;;;;4951565;28;20223;-83
2023/12/24 11:18:11;;;;;;;0.80;0.80;;;9.50;99.90;;;;;;4957962;28;20741;-83
2023/12/24 11:20:42;;;;;;;1.00;0.90;;;9.50;99.90;;;;;;4961735;28;20306;-83
2023/12/24 11:23:14;;;;;;;1.07;0.80;;;9.50;99.90;;;;;;4967664;28;20235;-82
2023/12/24 11:25:42;;;;;;;1.13;0.80;;;9.60;99.90;;;;;;4986070;28;20252;-82
2023/12/24 11:28:12;;;;;;;0.73;0.70;;;9.60;99.90;;;;;;4963773;28;20242;-83
2023/12/24 11:31:02;;;;;;;0.60;0.60;;;9.60;99.90;;;;;;4960169;28;20692;-83
2023/12/24 11:33:48;;;;;;;0.90;0.60;;;9.60;99.90;;;;;;4957746;28;20636;-83
2023/12/24 11:36:18;;;;;;;1.13;0.60;;;9.60;99.90;;;;;;4966386;28;20308;-82
2023/12/24 11:38:46;;;;;;;1.03;0.50;;;9.70;99.90;;;;;;4965306;28;20724;-83
2023/12/24 11:41:14;;;;;;;1.17;0.70;;;9.70;99.90;;;;;;4959569;28;20227;-84
2023/12/24 11:43:42;;;;;;;0.60;0.60;;;9.60;99.90;;;;;;4962590;28;20230;-83
2023/12/24 11:46:09;;;;;;;1.40;1.00;;;9.70;99.90;;;;;;4959632;28;20223;-84
2023/12/24 11:48:36;;;;;;;1.77;0.73;;;9.70;99.90;;;;;;4964945;28;20235;-82
2023/12/24 11:51:05;;;;;;;0.87;0.80;;;9.70;99.90;;;;;;4960462;28;20884;-81
2023/12/24 11:53:33;;;;;;;0.73;0.70;;;9.70;99.90;;;;;;4950801;28;20248;-85
2023/12/24 11:56:06;;;;;;;0.97;0.63;;;9.70;99.90;;;;;;4957406;28;20575;-83
2023/12/24 11:58:33;;;;;;;0.93;0.80;;;9.70;99.90;;;;;;4992891;28;20699;-84
2023/12/24 12:01:02;;;;;;;0.70;0.70;;;9.70;99.90;;;;;;4960069;28;20230;-84
2023/12/24 12:03:29;;;;;;;0.70;0.70;;;9.80;99.90;;;;;;4986076;28;20226;-83
2023/12/24 12:05:55;;;;;;;0.60;0.60;;;9.80;99.90;;;;;;4960380;28;20219;-83
2023/12/24 12:08:22;;;;;;;1.00;0.70;;;9.80;99.90;;;;;;4959667;28;20235;-84
2023/12/24 12:10:49;;;;;;;1.00;0.70;;;9.80;99.90;;;;;;4955907;28;20867;-83
2023/12/24 12:13:17;;;;;;;0.63;0.63;;;9.80;99.90;;;;;;4966142;28;20309;-83
2023/12/24 12:15:44;;;;;;;0.80;0.80;;;9.80;99.90;;;;;;4970023;28;20666;-84
2023/12/24 12:18:11;;;;;;;1.07;0.70;;;9.90;99.90;;;;;;4966233;28;20777;-84
2023/12/24 12:20:37;;;;;;;1.13;0.77;;;9.90;99.90;;;;;;4967296;28;20281;-83
2023/12/24 12:23:04;;;;;;;1.50;1.40;;;9.90;99.90;;;;;;4969720;28;20322;-83
2023/12/24 12:25:31;;;;;;;1.77;0.90;;;9.90;99.90;;;;;;4966526;28;20231;-83
2023/12/24 12:27:57;;;;;;;1.77;1.17;;;9.90;99.90;;;;;;4968165;28;20238;-84
2023/12/24 12:30:26;;;;;;;0.67;0.67;;;9.90;99.90;;;;;;4997809;28;20232;-83
2023/12/24 12:32:53;;;;;;;1.10;1.00;;;9.90;99.90;;;;;;4971477;28;20224;-84
2023/12/24 12:35:20;;;;;;;0.90;0.90;;;9.90;99.90;;;;;;4957107;28;20269;-84
2023/12/24 12:37:47;;;;;;;1.17;1.07;;;9.90;99.90;;;;;;4980592;28;20229;-83
2023/12/24 12:40:14;;;;;;;2.70;2.50;;;9.90;99.90;;;;;;4961998;28;20225;-84
2023/12/24 12:42:41;;;;;;;2.37;2.17;;;9.90;99.90;;;;;;4975975;28;20234;-83
2023/12/24 12:45:09;;;;;;;1.67;1.57;;;9.90;99.90;;;;;;4968832;28;20731;-85
2023/12/24 12:47:37;;;;;;;1.40;1.30;;;9.90;99.90;;;;;;4973846;28;20226;-84
2023/12/24 12:50:05;;;;;;;1.27;1.17;;;9.90;99.90;;;;;;4974541;28;20960;-84
2023/12/24 12:52:31;;;;;;;1.50;1.40;;;9.90;99.90;;;;;;4975249;28;20289;-84
2023/12/24 12:55:03;;;;;;;2.10;2.00;;;9.90;99.90;;;;;;4971295;28;20335;-84
2023/12/24 12:57:31;;;;;;;1.50;1.40;;;9.90;99.90;;;;;;4962573;28;20235;-84